createdAt,value
2017-11-25T00:00:31.666Z,1004.07
2017-11-25T00:01:12.212Z,1004.08
2017-11-25T00:01:52.737Z,1004.05
2017-11-25T00:02:33.269Z,1004
2017-11-25T00:03:13.800Z,1003.99
2017-11-25T00:03:54.328Z,1003.95
2017-11-25T00:04:34.954Z,1003.93
2017-11-25T00:05:15.663Z,1003.95
2017-11-25T00:05:56.336Z,1003.92
2017-11-25T00:06:37.014Z,1003.91
2017-11-25T00:07:17.585Z,1003.92
2017-11-25T00:07:58.153Z,1003.89
2017-11-25T00:08:38.683Z,1003.91
2017-11-25T00:09:19.211Z,1003.9
2017-11-25T00:09:59.750Z,1003.89
2017-11-25T00:10:40.284Z,1003.84
2017-11-25T00:11:20.811Z,1003.81
2017-11-25T00:12:01.363Z,1003.83
2017-11-25T00:12:41.871Z,1003.84
2017-11-25T00:13:22.409Z,1003.81
2017-11-25T00:14:02.964Z,1003.82
2017-11-25T00:14:43.482Z,1003.8
2017-11-25T00:15:24.011Z,1003.8
2017-11-25T00:16:04.545Z,1003.81
2017-11-25T00:16:45.089Z,1003.76
2017-11-25T00:17:25.609Z,1003.73
2017-11-25T00:18:06.132Z,1003.74
2017-11-25T00:18:46.675Z,1003.71
2017-11-25T00:19:27.187Z,1003.67
2017-11-25T00:20:07.726Z,1003.68
2017-11-25T00:20:48.255Z,1003.63
2017-11-25T00:21:28.787Z,1003.61
2017-11-25T00:22:09.317Z,1003.61
2017-11-25T00:22:49.921Z,1003.6
2017-11-25T00:23:30.443Z,1003.57
2017-11-25T00:24:10.960Z,1003.56
2017-11-25T00:24:51.492Z,1003.51
2017-11-25T00:25:32.026Z,1003.52
2017-11-25T00:26:12.554Z,1003.47
2017-11-25T00:26:53.072Z,1003.46
2017-11-25T00:27:33.621Z,1003.43
2017-11-25T00:28:14.142Z,1003.37
2017-11-25T00:28:54.674Z,1003.32
2017-11-25T00:29:35.206Z,1003.28
2017-11-25T00:30:15.734Z,1003.25
2017-11-25T00:30:56.263Z,1003.23
2017-11-25T00:31:36.802Z,1003.24
2017-11-25T00:32:17.320Z,1003.21
2017-11-25T00:32:57.865Z,1003.24
2017-11-25T00:33:38.387Z,1003.24
2017-11-25T00:34:18.902Z,1003.24
2017-11-25T00:34:59.437Z,1003.25
2017-11-25T00:35:39.963Z,1003.17
2017-11-25T00:36:20.489Z,1003.24
2017-11-25T00:37:01.016Z,1003.19
2017-11-25T00:37:41.548Z,1003.21
2017-11-25T00:38:22.088Z,1003.15
2017-11-25T00:39:02.606Z,1003.24
2017-11-25T00:39:43.123Z,1003.27
2017-11-25T00:40:23.659Z,1003.27
2017-11-25T00:41:04.194Z,1003.31
2017-11-25T00:41:44.729Z,1003.36
2017-11-25T00:42:25.243Z,1003.36
2017-11-25T00:43:05.770Z,1003.36
2017-11-25T00:43:46.311Z,1003.36
2017-11-25T00:44:26.847Z,1003.37
2017-11-25T00:45:07.377Z,1003.38
2017-11-25T00:45:47.913Z,1003.37
2017-11-25T00:46:28.436Z,1003.33
2017-11-25T00:47:08.973Z,1003.26
2017-11-25T00:47:49.518Z,1003.26
2017-11-25T00:48:30.033Z,1003.3
2017-11-25T00:49:10.565Z,1003.25
2017-11-25T00:49:51.095Z,1003.24
2017-11-25T00:50:31.625Z,1003.26
2017-11-25T00:51:12.153Z,1003.25
2017-11-25T00:51:52.681Z,1003.3
2017-11-25T00:52:33.217Z,1003.31
2017-11-25T00:53:13.752Z,1003.32
2017-11-25T00:53:54.279Z,1003.32
2017-11-25T00:54:34.808Z,1003.32
2017-11-25T00:55:15.336Z,1003.29
2017-11-25T00:55:55.852Z,1003.29
2017-11-25T00:56:36.381Z,1003.27
2017-11-25T00:57:16.907Z,1003.29
2017-11-25T00:57:57.417Z,1003.25
2017-11-25T00:58:37.930Z,1003.24
2017-11-25T00:59:18.461Z,1003.27
2017-11-25T00:59:58.990Z,1003.23
2017-11-25T01:00:39.528Z,1003.21
2017-11-25T01:01:20.038Z,1003.22
2017-11-25T01:02:00.580Z,1003.22
2017-11-25T01:02:41.111Z,1003.21
2017-11-25T01:03:21.642Z,1003.17
2017-11-25T01:04:02.173Z,1003.16
2017-11-25T01:04:42.684Z,1003.14
2017-11-25T01:05:23.214Z,1003.14
2017-11-25T01:06:03.740Z,1003.18
2017-11-25T01:06:44.281Z,1003.15
2017-11-25T01:07:24.824Z,1003.18
2017-11-25T01:08:05.334Z,1003.21
2017-11-25T01:08:45.873Z,1003.27
2017-11-25T01:09:26.397Z,1003.26
2017-11-25T01:10:06.922Z,1003.27
2017-11-25T01:10:47.427Z,1003.26
2017-11-25T01:11:27.964Z,1003.27
2017-11-25T01:12:08.498Z,1003.29
2017-11-25T01:12:49.007Z,1003.32
2017-11-25T01:13:29.538Z,1003.35
2017-11-25T01:14:10.067Z,1003.32
2017-11-25T01:14:50.599Z,1003.3
2017-11-25T01:15:31.117Z,1003.27
2017-11-25T01:16:11.638Z,1003.31
2017-11-25T01:16:52.172Z,1003.33
2017-11-25T01:17:32.709Z,1003.36
2017-11-25T01:18:13.245Z,1003.33
2017-11-25T01:18:53.788Z,1003.33
2017-11-25T01:19:34.299Z,1003.27
2017-11-25T01:20:14.833Z,1003.27
2017-11-25T01:20:55.369Z,1003.26
2017-11-25T01:21:37.504Z,1003.28
2017-11-25T01:22:18.039Z,1003.28
2017-11-25T01:22:58.560Z,1003.29
2017-11-25T01:23:39.094Z,1003.28
2017-11-25T01:24:19.626Z,1003.34
2017-11-25T01:25:00.242Z,1003.34
2017-11-25T01:25:40.790Z,1003.33
2017-11-25T01:26:21.316Z,1003.38
2017-11-25T01:27:01.849Z,1003.33
2017-11-25T01:27:42.385Z,1003.34
2017-11-25T01:28:22.910Z,1003.36
2017-11-25T01:29:03.439Z,1003.35
2017-11-25T01:29:43.966Z,1003.31
2017-11-25T01:30:24.493Z,1003.29
2017-11-25T01:31:05.028Z,1003.27
2017-11-25T01:31:45.560Z,1003.28
2017-11-25T01:32:26.094Z,1003.26
2017-11-25T01:33:06.634Z,1003.23
2017-11-25T01:33:47.171Z,1003.25
2017-11-25T01:34:27.703Z,1003.25
2017-11-25T01:35:08.221Z,1003.24
2017-11-25T01:35:48.742Z,1003.22
2017-11-25T01:36:29.266Z,1003.25
2017-11-25T01:37:09.807Z,1003.26
2017-11-25T01:37:50.341Z,1003.21
2017-11-25T01:38:30.866Z,1003.24
2017-11-25T01:39:11.403Z,1003.22
2017-11-25T01:39:51.929Z,1003.16
2017-11-25T01:40:32.464Z,1003.18
2017-11-25T01:41:12.991Z,1003.13
2017-11-25T01:41:53.507Z,1003.09
2017-11-25T01:42:34.032Z,1003.07
2017-11-25T01:43:14.566Z,1003.09
2017-11-25T01:43:55.148Z,1003.11
2017-11-25T01:44:35.664Z,1003.1
2017-11-25T01:45:16.190Z,1003.14
2017-11-25T01:45:56.704Z,1003.1
2017-11-25T01:46:37.229Z,1003.08
2017-11-25T01:47:17.760Z,1003.1
2017-11-25T01:47:58.274Z,1003.11
2017-11-25T01:48:38.792Z,1003.11
2017-11-25T01:49:19.328Z,1003.09
2017-11-25T01:49:59.861Z,1003.15
2017-11-25T01:50:40.394Z,1003.09
2017-11-25T01:51:20.909Z,1003.09
2017-11-25T01:52:01.453Z,1003.02
2017-11-25T01:52:41.984Z,1003.03
2017-11-25T01:53:22.514Z,1003.02
2017-11-25T01:54:03.037Z,1002.98
2017-11-25T01:54:43.565Z,1002.96
2017-11-25T01:55:24.095Z,1002.93
2017-11-25T01:56:04.614Z,1002.95
2017-11-25T01:56:45.157Z,1002.93
2017-11-25T01:57:25.702Z,1002.87
2017-11-25T01:58:06.241Z,1002.86
2017-11-25T01:58:46.752Z,1002.87
2017-11-25T01:59:27.287Z,1002.85
2017-11-25T02:00:07.826Z,1002.81
2017-11-25T02:00:48.361Z,1002.76
2017-11-25T02:01:28.898Z,1002.75
2017-11-25T02:02:09.409Z,1002.75
2017-11-25T02:02:49.941Z,1002.67
2017-11-25T02:03:30.472Z,1002.63
2017-11-25T02:04:11.015Z,1002.58
2017-11-25T02:04:51.532Z,1002.54
2017-11-25T02:05:32.059Z,1002.53
2017-11-25T02:06:12.594Z,1002.51
2017-11-25T02:06:53.130Z,1002.55
2017-11-25T02:07:33.659Z,1002.52
2017-11-25T02:08:14.178Z,1002.49
2017-11-25T02:08:54.708Z,1002.51
2017-11-25T02:09:35.246Z,1002.54
2017-11-25T02:10:15.793Z,1002.53
2017-11-25T02:10:56.313Z,1002.54
2017-11-25T02:11:36.836Z,1002.6
2017-11-25T02:12:17.365Z,1002.58
2017-11-25T02:12:57.899Z,1002.59
2017-11-25T02:13:38.435Z,1002.59
2017-11-25T02:14:18.942Z,1002.59
2017-11-25T02:14:59.471Z,1002.58
2017-11-25T02:15:40.013Z,1002.55
2017-11-25T02:16:20.549Z,1002.58
2017-11-25T02:17:01.083Z,1002.54
2017-11-25T02:17:41.649Z,1002.51
2017-11-25T02:18:22.185Z,1002.53
2017-11-25T02:19:02.720Z,1002.52
2017-11-25T02:19:43.253Z,1002.45
2017-11-25T02:20:23.773Z,1002.46
2017-11-25T02:21:04.311Z,1002.4
2017-11-25T02:21:44.851Z,1002.41
2017-11-25T02:22:25.371Z,1002.43
2017-11-25T02:23:05.893Z,1002.39
2017-11-25T02:23:46.409Z,1002.34
2017-11-25T02:24:26.951Z,1002.33
2017-11-25T02:25:07.481Z,1002.33
2017-11-25T02:25:48.012Z,1002.32
2017-11-25T02:26:28.540Z,1002.35
2017-11-25T02:27:09.116Z,1002.3
2017-11-25T02:27:49.643Z,1002.35
2017-11-25T02:28:30.175Z,1002.37
2017-11-25T02:29:10.702Z,1002.34
2017-11-25T02:29:51.218Z,1002.35
2017-11-25T02:30:31.746Z,1002.35
2017-11-25T02:31:12.263Z,1002.31
2017-11-25T02:31:52.802Z,1002.34
2017-11-25T02:32:33.340Z,1002.35
2017-11-25T02:33:13.847Z,1002.35
2017-11-25T02:33:54.378Z,1002.33
2017-11-25T02:34:34.915Z,1002.32
2017-11-25T02:35:15.443Z,1002.34
2017-11-25T02:35:55.984Z,1002.33
2017-11-25T02:36:36.497Z,1002.31
2017-11-25T02:37:17.015Z,1002.27
2017-11-25T02:37:57.554Z,1002.27
2017-11-25T02:38:38.071Z,1002.28
2017-11-25T02:39:18.602Z,1002.33
2017-11-25T02:39:59.123Z,1002.3
2017-11-25T02:40:39.653Z,1002.34
2017-11-25T02:41:20.188Z,1002.31
2017-11-25T02:42:00.730Z,1002.3
2017-11-25T02:42:41.230Z,1002.32
2017-11-25T02:43:21.768Z,1002.35
2017-11-25T02:44:02.303Z,1002.35
2017-11-25T02:44:42.817Z,1002.34
2017-11-25T02:45:23.353Z,1002.32
2017-11-25T02:46:03.865Z,1002.3
2017-11-25T02:46:44.400Z,1002.34
2017-11-25T02:47:24.939Z,1002.35
2017-11-25T02:48:05.460Z,1002.34
2017-11-25T02:48:45.977Z,1002.38
2017-11-25T02:49:26.512Z,1002.41
2017-11-25T02:50:07.046Z,1002.35
2017-11-25T02:50:47.564Z,1002.38
2017-11-25T02:51:28.107Z,1002.36
2017-11-25T02:52:08.618Z,1002.34
2017-11-25T02:52:49.154Z,1002.33
2017-11-25T02:53:29.679Z,1002.28
2017-11-25T02:54:10.207Z,1002.3
2017-11-25T02:54:50.737Z,1002.3
2017-11-25T02:55:31.268Z,1002.31
2017-11-25T02:56:11.794Z,1002.29
2017-11-25T02:56:52.313Z,1002.3
2017-11-25T02:57:32.837Z,1002.32
2017-11-25T02:58:13.359Z,1002.34
2017-11-25T02:58:53.896Z,1002.35
2017-11-25T02:59:34.436Z,1002.33
2017-11-25T03:00:14.959Z,1002.32
2017-11-25T03:00:55.463Z,1002.36
2017-11-25T03:01:35.991Z,1002.33
2017-11-25T03:02:16.516Z,1002.34
2017-11-25T03:02:57.059Z,1002.3
2017-11-25T03:03:37.595Z,1002.3
2017-11-25T03:04:18.126Z,1002.33
2017-11-25T03:04:58.656Z,1002.31
2017-11-25T03:05:39.178Z,1002.32
2017-11-25T03:06:19.709Z,1002.3
2017-11-25T03:07:00.247Z,1002.34
2017-11-25T03:07:40.779Z,1002.34
2017-11-25T03:08:21.309Z,1002.32
2017-11-25T03:09:01.843Z,1002.32
2017-11-25T03:09:42.373Z,1002.32
2017-11-25T03:10:22.911Z,1002.29
2017-11-25T03:11:03.614Z,1002.33
2017-11-25T03:11:47.672Z,1002.31
2017-11-25T03:12:28.217Z,1002.3
2017-11-25T03:13:08.748Z,1002.33
2017-11-25T03:13:49.286Z,1002.33
2017-11-25T03:14:29.809Z,1002.31
2017-11-25T03:15:10.335Z,1002.32
2017-11-25T03:15:50.869Z,1002.32
2017-11-25T03:16:31.395Z,1002.29
2017-11-25T03:17:11.928Z,1002.32
2017-11-25T03:17:52.447Z,1002.26
2017-11-25T03:18:32.988Z,1002.28
2017-11-25T03:19:13.532Z,1002.26
2017-11-25T03:19:54.037Z,1002.29
2017-11-25T03:20:34.563Z,1002.3
2017-11-25T03:21:15.081Z,1002.27
2017-11-25T03:21:55.620Z,1002.26
2017-11-25T03:22:36.161Z,1002.28
2017-11-25T03:23:16.699Z,1002.22
2017-11-25T03:23:57.238Z,1002.22
2017-11-25T03:24:37.771Z,1002.24
2017-11-25T03:25:18.302Z,1002.22
2017-11-25T03:25:58.823Z,1002.23
2017-11-25T03:26:39.359Z,1002.24
2017-11-25T03:27:19.869Z,1002.27
2017-11-25T03:28:00.398Z,1002.27
2017-11-25T03:28:40.923Z,1002.28
2017-11-25T03:29:21.461Z,1002.26
2017-11-25T03:30:02.001Z,1002.24
2017-11-25T03:30:42.520Z,1002.25
2017-11-25T03:31:23.045Z,1002.25
2017-11-25T03:32:03.581Z,1002.23
2017-11-25T03:32:44.118Z,1002.17
2017-11-25T03:33:24.666Z,1002.2
2017-11-25T03:34:05.176Z,1002.21
2017-11-25T03:34:45.699Z,1002.15
2017-11-25T03:35:26.221Z,1002.19
2017-11-25T03:36:06.764Z,1002.18
2017-11-25T03:36:47.299Z,1002.14
2017-11-25T03:37:27.822Z,1002.14
2017-11-25T03:38:08.355Z,1002.11
2017-11-25T03:38:48.887Z,1002.13
2017-11-25T03:39:29.451Z,1002.14
2017-11-25T03:40:09.947Z,1002.1
2017-11-25T03:40:50.518Z,1002.1
2017-11-25T03:41:31.041Z,1002.09
2017-11-25T03:42:11.573Z,1002.13
2017-11-25T03:42:52.107Z,1002.13
2017-11-25T03:43:32.627Z,1002.13
2017-11-25T03:44:13.161Z,1002.15
2017-11-25T03:44:53.704Z,1002.11
2017-11-25T03:45:34.224Z,1002.15
2017-11-25T03:46:14.745Z,1002.17
2017-11-25T03:46:55.265Z,1002.18
2017-11-25T03:47:35.787Z,1002.19
2017-11-25T03:48:16.313Z,1002.23
2017-11-25T03:48:56.824Z,1002.2
2017-11-25T03:49:37.359Z,1002.27
2017-11-25T03:50:17.873Z,1002.2
2017-11-25T03:50:58.407Z,1002.2
2017-11-25T03:51:38.938Z,1002.17
2017-11-25T03:52:19.465Z,1002.17
2017-11-25T03:53:00.005Z,1002.18
2017-11-25T03:53:40.531Z,1002.15
2017-11-25T03:54:21.052Z,1002.15
2017-11-25T03:55:01.589Z,1002.18
2017-11-25T03:55:42.169Z,1002.17
2017-11-25T03:56:22.697Z,1002.17
2017-11-25T03:57:03.225Z,1002.21
2017-11-25T03:57:43.746Z,1002.17
2017-11-25T03:58:24.262Z,1002.16
2017-11-25T03:59:04.774Z,1002.19
2017-11-25T03:59:45.301Z,1002.17
2017-11-25T04:00:25.822Z,1002.14
2017-11-25T04:01:06.355Z,1002.11
2017-11-25T04:01:46.874Z,1002.11
2017-11-25T04:02:27.407Z,1002.06
2017-11-25T04:03:07.938Z,1002.11
2017-11-25T04:03:48.468Z,1002.09
2017-11-25T04:04:28.998Z,1002.11
2017-11-25T04:05:09.523Z,1002.1
2017-11-25T04:05:50.050Z,1002.08
2017-11-25T04:06:30.567Z,1002.14
2017-11-25T04:07:11.096Z,1002.08
2017-11-25T04:07:51.629Z,1002.04
2017-11-25T04:08:32.160Z,1002.05
2017-11-25T04:09:12.694Z,1002.03
2017-11-25T04:09:53.222Z,1002.05
2017-11-25T04:10:33.729Z,1001.99
2017-11-25T04:11:14.259Z,1001.98
2017-11-25T04:11:54.789Z,1001.98
2017-11-25T04:12:35.320Z,1001.99
2017-11-25T04:13:15.842Z,1001.99
2017-11-25T04:13:56.376Z,1002.01
2017-11-25T04:14:36.905Z,1001.99
2017-11-25T04:15:17.483Z,1002.05
2017-11-25T04:15:58.024Z,1002.06
2017-11-25T04:16:38.546Z,1002.05
2017-11-25T04:17:19.075Z,1002.06
2017-11-25T04:17:59.624Z,1002.03
2017-11-25T04:18:40.154Z,1002.02
2017-11-25T04:19:20.685Z,1002.04
2017-11-25T04:20:01.223Z,1002.04
2017-11-25T04:20:41.751Z,1002.04
2017-11-25T04:21:22.276Z,1002.03
2017-11-25T04:22:02.806Z,1002.03
2017-11-25T04:22:43.399Z,1002.06
2017-11-25T04:23:23.921Z,1002.08
2017-11-25T04:24:04.451Z,1002.13
2017-11-25T04:24:44.980Z,1002.09
2017-11-25T04:25:25.501Z,1002.04
2017-11-25T04:26:06.031Z,1002.04
2017-11-25T04:26:46.555Z,1002.03
2017-11-25T04:27:27.097Z,1002.07
2017-11-25T04:28:07.632Z,1002.01
2017-11-25T04:28:48.148Z,1002.01
2017-11-25T04:29:28.663Z,1002
2017-11-25T04:30:09.189Z,1002
2017-11-25T04:30:49.718Z,1001.99
2017-11-25T04:31:30.239Z,1002.03
2017-11-25T04:32:10.773Z,1002
2017-11-25T04:32:51.311Z,1001.99
2017-11-25T04:33:31.868Z,1001.99
2017-11-25T04:34:12.392Z,1002.02
2017-11-25T04:34:52.936Z,1002.01
2017-11-25T04:35:33.459Z,1002.05
2017-11-25T04:36:13.992Z,1002.02
2017-11-25T04:36:54.521Z,1002.04
2017-11-25T04:37:35.066Z,1002.03
2017-11-25T04:38:15.594Z,1002.01
2017-11-25T04:38:56.103Z,1001.95
2017-11-25T04:39:36.639Z,1001.96
2017-11-25T04:40:17.168Z,1001.92
2017-11-25T04:40:57.730Z,1001.88
2017-11-25T04:41:38.253Z,1001.84
2017-11-25T04:42:18.786Z,1001.85
2017-11-25T04:42:59.308Z,1001.85
2017-11-25T04:43:39.832Z,1001.83
2017-11-25T04:44:20.358Z,1001.89
2017-11-25T04:45:00.889Z,1001.86
2017-11-25T04:45:41.414Z,1001.89
2017-11-25T04:46:21.959Z,1001.91
2017-11-25T04:47:02.485Z,1001.92
2017-11-25T04:47:43.015Z,1001.89
2017-11-25T04:48:23.548Z,1001.83
2017-11-25T04:49:04.073Z,1001.8
2017-11-25T04:49:44.596Z,1001.82
2017-11-25T04:50:25.122Z,1001.84
2017-11-25T04:51:05.628Z,1001.88
2017-11-25T04:51:46.157Z,1001.86
2017-11-25T04:52:26.661Z,1001.9
2017-11-25T04:53:07.195Z,1001.92
2017-11-25T04:53:47.709Z,1001.92
2017-11-25T04:54:28.233Z,1001.91
2017-11-25T04:55:08.769Z,1001.88
2017-11-25T04:55:49.289Z,1001.88
2017-11-25T04:56:29.824Z,1001.89
2017-11-25T04:57:10.359Z,1001.87
2017-11-25T04:57:50.869Z,1001.9
2017-11-25T04:58:31.471Z,1001.87
2017-11-25T04:59:12.001Z,1001.87
2017-11-25T04:59:52.543Z,1001.86
2017-11-25T05:00:33.081Z,1001.86
2017-11-25T05:01:13.619Z,1001.82
2017-11-25T05:01:54.132Z,1001.85
2017-11-25T05:02:34.658Z,1001.84
2017-11-25T05:03:15.192Z,1001.84
2017-11-25T05:03:55.733Z,1001.82
2017-11-25T05:04:36.265Z,1001.85
2017-11-25T05:05:16.788Z,1001.87
2017-11-25T05:05:57.304Z,1001.83
2017-11-25T05:06:37.836Z,1001.82
2017-11-25T05:07:18.373Z,1001.82
2017-11-25T05:07:58.912Z,1001.81
2017-11-25T05:08:39.429Z,1001.82
2017-11-25T05:09:19.958Z,1001.83
2017-11-25T05:10:00.484Z,1001.86
2017-11-25T05:10:40.988Z,1001.88
2017-11-25T05:11:21.669Z,1001.87
2017-11-25T05:12:02.180Z,1001.87
2017-11-25T05:12:42.716Z,1001.89
2017-11-25T05:13:23.240Z,1001.92
2017-11-25T05:14:03.751Z,1001.9
2017-11-25T05:14:44.277Z,1001.92
2017-11-25T05:15:24.795Z,1001.95
2017-11-25T05:16:05.324Z,1001.95
2017-11-25T05:16:45.844Z,1001.95
2017-11-25T05:17:26.375Z,1001.96
2017-11-25T05:18:06.895Z,1001.96
2017-11-25T05:18:47.426Z,1001.99
2017-11-25T05:19:27.946Z,1002.01
2017-11-25T05:20:08.463Z,1002.01
2017-11-25T05:20:48.977Z,1001.99
2017-11-25T05:21:29.504Z,1001.95
2017-11-25T05:22:10.031Z,1001.95
2017-11-25T05:22:50.545Z,1001.93
2017-11-25T05:23:31.052Z,1001.91
2017-11-25T05:24:11.568Z,1001.87
2017-11-25T05:24:52.101Z,1001.89
2017-11-25T05:25:32.624Z,1001.87
2017-11-25T05:26:13.151Z,1001.83
2017-11-25T05:26:53.650Z,1001.84
2017-11-25T05:27:34.181Z,1001.89
2017-11-25T05:28:14.701Z,1001.91
2017-11-25T05:28:55.217Z,1001.95
2017-11-25T05:29:35.747Z,1001.98
2017-11-25T05:30:16.281Z,1002.03
2017-11-25T05:30:56.815Z,1002.02
2017-11-25T05:31:37.340Z,1001.98
2017-11-25T05:32:17.870Z,1001.99
2017-11-25T05:32:58.397Z,1002.02
2017-11-25T05:33:38.929Z,1002
2017-11-25T05:34:19.441Z,1001.96
2017-11-25T05:34:59.973Z,1001.88
2017-11-25T05:35:40.492Z,1001.89
2017-11-25T05:36:21.026Z,1001.9
2017-11-25T05:37:01.545Z,1001.89
2017-11-25T05:37:42.084Z,1001.89
2017-11-25T05:38:22.613Z,1001.91
2017-11-25T05:39:03.144Z,1001.88
2017-11-25T05:39:43.672Z,1001.89
2017-11-25T05:40:24.213Z,1001.88
2017-11-25T05:41:04.726Z,1001.91
2017-11-25T05:41:45.252Z,1001.9
2017-11-25T05:42:25.775Z,1001.91
2017-11-25T05:43:06.301Z,1001.9
2017-11-25T05:43:46.838Z,1001.92
2017-11-25T05:44:27.365Z,1001.95
2017-11-25T05:45:07.892Z,1001.94
2017-11-25T05:45:48.419Z,1001.93
2017-11-25T05:46:28.946Z,1001.95
2017-11-25T05:47:09.461Z,1002
2017-11-25T05:47:49.995Z,1002.04
2017-11-25T05:48:30.532Z,1002.06
2017-11-25T05:49:11.050Z,1002.03
2017-11-25T05:49:51.564Z,1002.05
2017-11-25T05:50:32.101Z,1002.05
2017-11-25T05:51:12.632Z,1002.11
2017-11-25T05:51:53.161Z,1002.06
2017-11-25T05:52:33.701Z,1002.08
2017-11-25T05:53:14.230Z,1002.07
2017-11-25T05:53:54.779Z,1002.1
2017-11-25T05:54:35.306Z,1002.06
2017-11-25T05:55:15.837Z,1002.07
2017-11-25T05:55:56.374Z,1002.1
2017-11-25T05:56:36.902Z,1002.11
2017-11-25T05:57:17.433Z,1002.06
2017-11-25T05:57:57.959Z,1002.03
2017-11-25T05:58:38.495Z,1002.04
2017-11-25T05:59:19.020Z,1002.04
2017-11-25T05:59:59.541Z,1001.98
2017-11-25T06:00:40.074Z,1001.99
2017-11-25T06:01:20.597Z,1002.02
2017-11-25T06:02:01.108Z,1002.04
2017-11-25T06:02:41.640Z,1002.07
2017-11-25T06:03:22.151Z,1002.1
2017-11-25T06:04:02.671Z,1002.07
2017-11-25T06:04:43.208Z,1002.1
2017-11-25T06:05:23.727Z,1002.11
2017-11-25T06:06:04.256Z,1002.12
2017-11-25T06:06:44.788Z,1002.1
2017-11-25T06:07:25.293Z,1002.09
2017-11-25T06:08:05.831Z,1002.08
2017-11-25T06:08:46.351Z,1002.14
2017-11-25T06:09:26.884Z,1002.22
2017-11-25T06:10:07.403Z,1002.2
2017-11-25T06:10:47.925Z,1002.23
2017-11-25T06:11:28.516Z,1002.26
2017-11-25T06:12:09.049Z,1002.26
2017-11-25T06:12:49.570Z,1002.2
2017-11-25T06:13:30.093Z,1002.18
2017-11-25T06:14:10.621Z,1002.23
2017-11-25T06:14:51.145Z,1002.24
2017-11-25T06:15:31.670Z,1002.26
2017-11-25T06:16:12.210Z,1002.26
2017-11-25T06:16:52.753Z,1002.29
2017-11-25T06:17:33.271Z,1002.28
2017-11-25T06:18:13.793Z,1002.29
2017-11-25T06:18:54.349Z,1002.22
2017-11-25T06:19:34.979Z,1002.18
2017-11-25T06:20:15.519Z,1002.24
2017-11-25T06:20:56.054Z,1002.17
2017-11-25T06:21:36.581Z,1002.16
2017-11-25T06:22:17.101Z,1002.19
2017-11-25T06:22:57.629Z,1002.24
2017-11-25T06:23:38.181Z,1002.29
2017-11-25T06:24:18.787Z,1002.35
2017-11-25T06:24:59.405Z,1002.38
2017-11-25T06:25:39.987Z,1002.46
2017-11-25T06:26:20.563Z,1002.47
2017-11-25T06:27:01.135Z,1002.46
2017-11-25T06:27:41.689Z,1002.49
2017-11-25T06:28:22.243Z,1002.48
2017-11-25T06:29:02.762Z,1002.47
2017-11-25T06:29:43.327Z,1002.49
2017-11-25T06:30:23.917Z,1002.53
2017-11-25T06:31:04.485Z,1002.57
2017-11-25T06:31:45.023Z,1002.62
2017-11-25T06:32:25.543Z,1002.59
2017-11-25T06:33:06.118Z,1002.64
2017-11-25T06:33:46.639Z,1002.62
2017-11-25T06:34:27.168Z,1002.59
2017-11-25T06:35:07.770Z,1002.57
2017-11-25T06:35:48.322Z,1002.57
2017-11-25T06:36:28.864Z,1002.54
2017-11-25T06:37:09.416Z,1002.54
2017-11-25T06:37:49.951Z,1002.52
2017-11-25T06:38:30.487Z,1002.54
2017-11-25T06:39:11.046Z,1002.53
2017-11-25T06:39:51.573Z,1002.52
2017-11-25T06:40:32.099Z,1002.55
2017-11-25T06:41:12.704Z,1002.51
2017-11-25T06:41:53.281Z,1002.55
2017-11-25T06:42:33.825Z,1002.52
2017-11-25T06:43:14.445Z,1002.58
2017-11-25T06:43:54.966Z,1002.63
2017-11-25T06:44:35.487Z,1002.62
2017-11-25T06:45:16.014Z,1002.66
2017-11-25T06:45:56.543Z,1002.63
2017-11-25T06:46:37.062Z,1002.63
2017-11-25T06:47:17.654Z,1002.62
2017-11-25T06:47:58.208Z,1002.6
2017-11-25T06:48:38.771Z,1002.59
2017-11-25T06:49:19.293Z,1002.6
2017-11-25T06:49:59.809Z,1002.56
2017-11-25T06:50:40.448Z,1002.55
2017-11-25T06:51:21.019Z,1002.59
2017-11-25T06:52:01.594Z,1002.57
2017-11-25T06:52:42.177Z,1002.57
2017-11-25T06:53:22.706Z,1002.53
2017-11-25T06:54:03.230Z,1002.55
2017-11-25T06:54:43.763Z,1002.54
2017-11-25T06:55:24.363Z,1002.58
2017-11-25T06:56:04.873Z,1002.62
2017-11-25T06:56:45.385Z,1002.64
2017-11-25T06:57:25.913Z,1002.67
2017-11-25T06:58:06.423Z,1002.75
2017-11-25T06:58:46.950Z,1002.76
2017-11-25T06:59:27.471Z,1002.82
2017-11-25T07:00:08.017Z,1002.82
2017-11-25T07:00:48.570Z,1002.79
2017-11-25T07:01:29.109Z,1002.78
2017-11-25T07:02:09.674Z,1002.8
2017-11-25T07:02:50.217Z,1002.81
2017-11-25T07:03:30.788Z,1002.84
2017-11-25T07:04:11.327Z,1002.87
2017-11-25T07:04:51.863Z,1002.85
2017-11-25T07:05:32.423Z,1002.84
2017-11-25T07:06:12.966Z,1002.88
2017-11-25T07:06:53.466Z,1002.84
2017-11-25T07:07:33.990Z,1002.84
2017-11-25T07:08:14.510Z,1002.81
2017-11-25T07:08:55.014Z,1002.82
2017-11-25T07:09:35.611Z,1002.84
2017-11-25T07:10:16.182Z,1002.83
2017-11-25T07:10:56.735Z,1002.9
2017-11-25T07:11:37.286Z,1002.89
2017-11-25T07:12:17.858Z,1002.97
2017-11-25T07:12:58.419Z,1002.99
2017-11-25T07:13:38.966Z,1002.99
2017-11-25T07:14:19.490Z,1002.93
2017-11-25T07:15:00.028Z,1002.91
2017-11-25T07:15:40.541Z,1002.97
2017-11-25T07:16:21.059Z,1002.91
2017-11-25T07:17:01.577Z,1002.85
2017-11-25T07:17:42.090Z,1002.87
2017-11-25T07:18:22.627Z,1002.89
2017-11-25T07:19:03.168Z,1002.91
2017-11-25T07:19:43.698Z,1002.91
2017-11-25T07:20:24.244Z,1002.97
2017-11-25T07:21:04.748Z,1002.98
2017-11-25T07:21:45.260Z,1003.01
2017-11-25T07:22:25.829Z,1003.02
2017-11-25T07:23:06.309Z,1003.04
2017-11-25T07:23:46.838Z,1003.02
2017-11-25T07:24:27.371Z,1003.09
2017-11-25T07:25:07.898Z,1003.05
2017-11-25T07:25:48.425Z,1003.06
2017-11-25T07:26:28.952Z,1003.07
2017-11-25T07:27:09.473Z,1003.11
2017-11-25T07:27:50.003Z,1003.12
2017-11-25T07:28:30.553Z,1003.13
2017-11-25T07:29:11.069Z,1003.16
2017-11-25T07:29:51.597Z,1003.16
2017-11-25T07:30:32.126Z,1003.2
2017-11-25T07:31:12.651Z,1003.2
2017-11-25T07:31:53.187Z,1003.19
2017-11-25T07:32:33.700Z,1003.16
2017-11-25T07:33:14.224Z,1003.17
2017-11-25T07:33:54.757Z,1003.15
2017-11-25T07:34:35.290Z,1003.17
2017-11-25T07:35:15.828Z,1003.14
2017-11-25T07:35:56.340Z,1003.18
2017-11-25T07:36:36.859Z,1003.15
2017-11-25T07:37:17.391Z,1003.18
2017-11-25T07:37:57.909Z,1003.22
2017-11-25T07:38:38.438Z,1003.23
2017-11-25T07:39:18.957Z,1003.25
2017-11-25T07:39:59.482Z,1003.29
2017-11-25T07:40:40.082Z,1003.33
2017-11-25T07:41:20.612Z,1003.37
2017-11-25T07:42:01.207Z,1003.39
2017-11-25T07:42:41.720Z,1003.42
2017-11-25T07:43:22.251Z,1003.46
2017-11-25T07:44:02.784Z,1003.45
2017-11-25T07:44:43.286Z,1003.47
2017-11-25T07:45:23.816Z,1003.43
2017-11-25T07:46:04.348Z,1003.45
2017-11-25T07:46:44.860Z,1003.43
2017-11-25T07:47:25.362Z,1003.39
2017-11-25T07:48:05.897Z,1003.42
2017-11-25T07:48:46.418Z,1003.4
2017-11-25T07:49:26.956Z,1003.41
2017-11-25T07:50:07.467Z,1003.4
2017-11-25T07:50:48.000Z,1003.41
2017-11-25T07:51:28.532Z,1003.44
2017-11-25T07:52:09.060Z,1003.48
2017-11-25T07:52:49.564Z,1003.52
2017-11-25T07:53:30.064Z,1003.54
2017-11-25T07:54:10.588Z,1003.54
2017-11-25T07:54:51.120Z,1003.54
2017-11-25T07:55:31.639Z,1003.51
2017-11-25T07:56:12.144Z,1003.47
2017-11-25T07:56:52.671Z,1003.47
2017-11-25T07:57:33.209Z,1003.48
2017-11-25T07:58:13.735Z,1003.48
2017-11-25T07:58:54.288Z,1003.49
2017-11-25T07:59:34.815Z,1003.5
2017-11-25T08:00:15.349Z,1003.52
2017-11-25T08:00:55.870Z,1003.53
2017-11-25T08:01:36.413Z,1003.53
2017-11-25T08:02:16.940Z,1003.51
2017-11-25T08:02:57.456Z,1003.58
2017-11-25T08:03:37.981Z,1003.55
2017-11-25T08:04:18.522Z,1003.58
2017-11-25T08:04:59.047Z,1003.6
2017-11-25T08:05:39.552Z,1003.56
2017-11-25T08:06:20.061Z,1003.61
2017-11-25T08:07:00.567Z,1003.63
2017-11-25T08:07:41.087Z,1003.63
2017-11-25T08:08:21.611Z,1003.7
2017-11-25T08:09:02.155Z,1003.7
2017-11-25T08:09:42.658Z,1003.7
2017-11-25T08:10:23.185Z,1003.73
2017-11-25T08:11:03.706Z,1003.75
2017-11-25T08:11:44.216Z,1003.76
2017-11-25T08:12:24.729Z,1003.78